Time;durP1;ratioP1;P1;durP2;ratioP2;P2;SDS_P1;SDS_P2;PMS_P1;PMS_P2;Temp;Humidity;BMP_temperature;BMP_pressure;BME280_temperature;BME280_humidity;BME280_pressure;Samples;Min_cycle;Max_cycle;Signal;HPM_P1;HPM_P2
2022/03/30 00:00:05;;;;;;;;;;;12.40;78.70;;;;;;5080429;28;19915;-79
2022/03/30 00:02:31;;;;;;;;;;;12.40;78.80;;;;;;5080349;28;19909;-78
2022/03/30 00:04:56;;;;;;;;;;;12.40;78.50;;;;;;5080786;28;19908;-78
2022/03/30 00:07:22;;;;;;;;;;;12.40;79.90;;;;;;5080342;28;19913;-78
2022/03/30 00:09:48;;;;;;;;;;;12.40;78.70;;;;;;5080683;28;20003;-78
2022/03/30 00:12:13;;;;;;;;;;;12.40;79.10;;;;;;5080285;28;20026;-78
2022/03/30 00:14:39;;;;;;;;;;;12.40;78.40;;;;;;5062139;28;19909;-78
2022/03/30 00:17:05;;;;;;;;;;;12.30;78.20;;;;;;5080174;28;20267;-78
2022/03/30 00:19:31;;;;;;;;;;;12.30;77.30;;;;;;5080393;28;19909;-78
2022/03/30 00:21:57;;;;;;;;;;;12.30;75.90;;;;;;5079698;28;19917;-78
2022/03/30 00:24:23;;;;;;;;;;;12.30;79.70;;;;;;5062125;28;19915;-78
2022/03/30 00:26:49;;;;;;;;;;;12.30;80.90;;;;;;5079653;28;19908;-78
2022/03/30 00:29:14;;;;;;;;;;;12.30;80.60;;;;;;5079858;28;19912;-78
2022/03/30 00:31:40;;;;;;;;;;;12.30;79.90;;;;;;5080030;28;20273;-78
2022/03/30 00:34:06;;;;;;;;;;;12.30;80.80;;;;;;5079912;28;19908;-78
2022/03/30 00:36:32;;;;;;;;;;;12.20;79.40;;;;;;5079866;28;19912;-78
2022/03/30 00:38:57;;;;;;;;;;;12.20;79.40;;;;;;5079830;28;19908;-78
2022/03/30 00:41:23;;;;;;;;;;;12.20;80.50;;;;;;5079649;28;19908;-78
2022/03/30 00:43:49;;;;;;;;;;;12.20;80.60;;;;;;5079637;28;20730;-78
2022/03/30 00:46:16;;;;;;;;;;;12.20;80.60;;;;;;5080025;28;19954;-78
2022/03/30 00:48:42;;;;;;;;;;;12.20;80.50;;;;;;5079519;28;19947;-78
2022/03/30 00:51:08;;;;;;;;;;;12.20;78.40;;;;;;5079608;28;19915;-78
2022/03/30 00:53:34;;;;;;;;;;;12.10;78.10;;;;;;5079726;28;19908;-78
2022/03/30 00:56:00;;;;;;;;;;;12.10;76.70;;;;;;5079301;28;19913;-77
2022/03/30 00:58:26;;;;;;;;;;;12.10;77.90;;;;;;5079402;28;19916;-78
2022/03/30 01:00:52;;;;;;;;;;;12.10;79.90;;;;;;5079396;28;19913;-78
2022/03/30 01:03:19;;;;;;;;;;;12.10;79.00;;;;;;5061467;28;20443;-78
2022/03/30 01:05:44;;;;;;;;;;;12.10;79.00;;;;;;5079411;28;20260;-78
2022/03/30 01:08:10;;;;;;;;;;;12.10;77.30;;;;;;5079416;28;19954;-78
2022/03/30 01:10:36;;;;;;;;;;;12.10;76.60;;;;;;5079182;28;19923;-78
2022/03/30 01:13:03;;;;;;;;;;;12.10;77.30;;;;;;5079149;28;20367;-78
2022/03/30 01:15:29;;;;;;;;;;;12.10;77.30;;;;;;5078907;28;19965;-78
2022/03/30 01:17:56;;;;;;;;;;;12.10;78.60;;;;;;5079428;28;20391;-78
2022/03/30 01:20:22;;;;;;;;;;;12.10;77.70;;;;;;5079314;28;19954;-78
2022/03/30 01:22:49;;;;;;;;;;;12.10;77.70;;;;;;5061051;28;20379;-78
2022/03/30 01:25:14;;;;;;;;;;;12.10;79.70;;;;;;5078770;28;19915;-78
2022/03/30 01:27:40;;;;;;;;;;;12.10;79.90;;;;;;5078508;28;19955;-78
2022/03/30 01:32:53;;;;;;;;;;;12.00;79.30;;;;;;5077902;28;19915;-78
2022/03/30 01:35:19;;;;;;;;;;;12.10;79.60;;;;;;5078784;28;19916;-78
2022/03/30 01:37:45;;;;;;;;;;;12.10;80.00;;;;;;5078951;28;19934;-78
2022/03/30 01:40:10;;;;;;;;;;;12.10;77.80;;;;;;5078303;28;19908;-78
2022/03/30 01:42:36;;;;;;;;;;;12.00;80.40;;;;;;5078807;28;19908;-78
2022/03/30 01:45:02;;;;;;;;;;;12.00;78.90;;;;;;5078264;28;19971;-79
2022/03/30 01:47:28;;;;;;;;;;;12.00;78.70;;;;;;5078537;28;19920;-79
2022/03/30 01:49:54;;;;;;;;;;;12.00;77.90;;;;;;5078495;28;19909;-79
2022/03/30 01:52:20;;;;;;;;;;;12.00;79.60;;;;;;5078395;28;19915;-80
2022/03/30 01:54:46;;;;;;;;;;;12.00;79.80;;;;;;5078358;28;19909;-81
2022/03/30 01:57:14;;;;;;;;;;;12.00;79.60;;;;;;5078442;28;19962;-80
2022/03/30 01:59:44;;;;;;;;;;;12.00;78.10;;;;;;5065050;28;19909;-78
2022/03/30 02:02:11;;;;;;;;;;;12.00;77.90;;;;;;5078199;28;19908;-77
2022/03/30 02:04:36;;;;;;;;;;;12.00;78.00;;;;;;5078496;28;19908;-78
2022/03/30 02:07:03;;;;;;;;;;;12.00;77.50;;;;;;5078151;28;19930;-77
2022/03/30 02:09:28;;;;;;;;;;;12.00;77.70;;;;;;5078269;28;20282;-77
2022/03/30 02:11:54;;;;;;;;;;;12.00;76.70;;;;;;5078147;28;19915;-79
2022/03/30 02:14:21;;;;;;;;;;;11.90;76.50;;;;;;5078015;28;19962;-80
2022/03/30 02:16:46;;;;;;;;;;;11.90;78.50;;;;;;5078134;28;20355;-80
2022/03/30 02:19:13;;;;;;;;;;;12.00;78.60;;;;;;5078141;28;19918;-80
2022/03/30 02:21:38;;;;;;;;;;;12.00;81.20;;;;;;5077927;28;20344;-78
2022/03/30 02:24:04;;;;;;;;;;;12.00;80.80;;;;;;5077932;28;19944;-77
2022/03/30 02:26:30;;;;;;;;;;;11.90;79.60;;;;;;5077896;28;19984;-78
2022/03/30 02:28:56;;;;;;;;;;;11.90;80.10;;;;;;5077394;28;19958;-77
2022/03/30 02:31:22;;;;;;;;;;;11.90;79.00;;;;;;5078034;28;19908;-77
2022/03/30 02:33:48;;;;;;;;;;;11.90;78.20;;;;;;5075402;28;19909;-77
2022/03/30 02:36:14;;;;;;;;;;;11.90;77.80;;;;;;5077945;28;19919;-77
2022/03/30 02:38:40;;;;;;;;;;;11.90;80.60;;;;;;5078220;28;20005;-77
2022/03/30 02:41:06;;;;;;;;;;;11.90;79.10;;;;;;5059492;28;19909;-79
2022/03/30 02:43:33;;;;;;;;;;;11.90;78.80;;;;;;5059409;28;19912;-80
2022/03/30 02:45:58;;;;;;;;;;;11.90;78.10;;;;;;5077746;28;19947;-80
2022/03/30 02:48:28;;;;;;;;;;;11.90;77.70;;;;;;5077631;28;19920;-80
2022/03/30 02:50:55;;;;;;;;;;;11.90;77.30;;;;;;5077579;28;20011;-79
2022/03/30 02:53:21;;;;;;;;;;;11.90;78.10;;;;;;5077814;28;19931;-80
2022/03/30 02:55:47;;;;;;;;;;;11.90;81.50;;;;;;5059357;28;20383;-80
2022/03/30 02:58:13;;;;;;;;;;;11.90;80.30;;;;;;5077760;28;20401;-80
2022/03/30 03:00:39;;;;;;;;;;;11.90;80.40;;;;;;5077615;28;19912;-80
2022/03/30 03:03:04;;;;;;;;;;;11.90;78.30;;;;;;5059506;28;20026;-80
2022/03/30 03:05:33;;;;;;;;;;;11.90;79.50;;;;;;5077619;28;19952;-80
2022/03/30 03:07:59;;;;;;;;;;;11.90;77.80;;;;;;5059617;28;19920;-80
2022/03/30 03:10:25;;;;;;;;;;;11.90;77.30;;;;;;5059514;28;20403;-80
2022/03/30 03:12:51;;;;;;;;;;;11.90;79.50;;;;;;5077468;28;19954;-80
2022/03/30 03:15:17;;;;;;;;;;;11.90;78.60;;;;;;5077194;28;19947;-77
2022/03/30 03:17:43;;;;;;;;;;;11.90;79.50;;;;;;5077552;28;19915;-77
2022/03/30 03:20:09;;;;;;;;;;;11.90;78.50;;;;;;5077522;28;20003;-77
2022/03/30 03:22:35;;;;;;;;;;;11.90;78.50;;;;;;5077436;28;19909;-77
2022/03/30 03:25:01;;;;;;;;;;;11.90;78.40;;;;;;5077313;28;19915;-77
2022/03/30 03:27:28;;;;;;;;;;;11.90;78.00;;;;;;5058938;28;19908;-77
2022/03/30 03:29:54;;;;;;;;;;;11.90;77.10;;;;;;5077089;28;19909;-77
2022/03/30 03:32:20;;;;;;;;;;;11.90;78.50;;;;;;5059321;28;19914;-77
2022/03/30 03:34:45;;;;;;;;;;;11.90;78.20;;;;;;5077081;28;20379;-77
2022/03/30 03:37:11;;;;;;;;;;;11.90;77.60;;;;;;5077213;28;19967;-77
2022/03/30 03:39:37;;;;;;;;;;;11.90;77.70;;;;;;5076977;28;19991;-77
2022/03/30 03:42:03;;;;;;;;;;;11.80;78.00;;;;;;5077631;28;20372;-77
2022/03/30 03:44:28;;;;;;;;;;;11.80;77.90;;;;;;5076796;28;19920;-77
2022/03/30 03:46:56;;;;;;;;;;;11.80;77.50;;;;;;5077404;28;19909;-79
2022/03/30 03:49:22;;;;;;;;;;;11.90;78.50;;;;;;5059037;28;19927;-80
2022/03/30 03:51:48;;;;;;;;;;;11.80;79.10;;;;;;5077299;28;19909;-78
2022/03/30 03:54:13;;;;;;;;;;;11.80;79.00;;;;;;5076815;28;19908;-78
2022/03/30 03:56:40;;;;;;;;;;;11.80;78.60;;;;;;5078748;28;20394;-78
2022/03/30 03:59:05;;;;;;;;;;;11.80;77.80;;;;;;5062269;28;19908;-78
2022/03/30 04:01:31;;;;;;;;;;;11.80;77.70;;;;;;5080681;28;19935;-77
2022/03/30 04:03:57;;;;;;;;;;;11.80;77.00;;;;;;5080535;28;19908;-77
2022/03/30 04:06:22;;;;;;;;;;;11.80;77.70;;;;;;5080629;28;20410;-77
2022/03/30 04:08:49;;;;;;;;;;;11.90;79.70;;;;;;5080572;28;19917;-77
2022/03/30 04:11:14;;;;;;;;;;;11.80;78.80;;;;;;5080418;28;19908;-78
2022/03/30 04:13:40;;;;;;;;;;;11.80;78.80;;;;;;5080191;28;20367;-79
2022/03/30 04:16:06;;;;;;;;;;;11.80;79.80;;;;;;5080481;28;19919;-78
2022/03/30 04:18:32;;;;;;;;;;;11.80;78.30;;;;;;5080299;28;19934;-78
2022/03/30 04:20:57;;;;;;;;;;;11.80;78.00;;;;;;5080294;28;19931;-78
2022/03/30 04:23:23;;;;;;;;;;;11.80;79.20;;;;;;5080211;28;19931;-78
2022/03/30 04:25:49;;;;;;;;;;;11.80;78.60;;;;;;5080255;28;20350;-78
2022/03/30 04:28:17;;;;;;;;;;;11.80;79.30;;;;;;5079367;28;19919;-78
2022/03/30 04:30:44;;;;;;;;;;;11.80;79.00;;;;;;5062272;28;19909;-78
2022/03/30 04:33:10;;;;;;;;;;;11.70;79.10;;;;;;5079847;28;19931;-77
2022/03/30 04:35:36;;;;;;;;;;;11.70;79.00;;;;;;5079565;28;19924;-77
2022/03/30 04:38:02;;;;;;;;;;;11.70;78.60;;;;;;5079938;28;19962;-77
2022/03/30 04:40:28;;;;;;;;;;;11.70;78.90;;;;;;5061706;28;19943;-78
2022/03/30 04:42:54;;;;;;;;;;;11.70;78.20;;;;;;5079637;28;20325;-78
2022/03/30 04:45:20;;;;;;;;;;;11.70;77.70;;;;;;5079842;28;19916;-78
2022/03/30 04:47:46;;;;;;;;;;;11.70;77.70;;;;;;5079761;28;20295;-78
2022/03/30 04:50:14;;;;;;;;;;;11.70;77.50;;;;;;5079009;28;20209;-78
2022/03/30 04:52:41;;;;;;;;;;;11.70;78.00;;;;;;5079661;28;19913;-78
2022/03/30 04:55:07;;;;;;;;;;;11.70;78.20;;;;;;5061620;28;19931;-78
2022/03/30 04:57:33;;;;;;;;;;;11.70;77.90;;;;;;5079525;28;19921;-78
2022/03/30 04:59:58;;;;;;;;;;;11.70;78.30;;;;;;5079385;28;19912;-78
2022/03/30 05:02:26;;;;;;;;;;;11.70;78.90;;;;;;5079403;28;19915;-77
2022/03/30 05:04:52;;;;;;;;;;;11.70;78.80;;;;;;5079666;28;19915;-77
2022/03/30 05:07:17;;;;;;;;;;;11.70;79.30;;;;;;5079343;28;19908;-77
2022/03/30 05:09:43;;;;;;;;;;;11.70;78.60;;;;;;5079333;28;19909;-76
2022/03/30 05:12:09;;;;;;;;;;;11.60;79.20;;;;;;5079249;28;20329;-79
2022/03/30 05:14:34;;;;;;;;;;;11.60;78.80;;;;;;5079103;28;19909;-78
2022/03/30 05:17:00;;;;;;;;;;;11.70;78.40;;;;;;5079045;28;20366;-83
2022/03/30 05:19:26;;;;;;;;;;;11.60;78.60;;;;;;5079013;28;20003;-82
2022/03/30 05:21:52;;;;;;;;;;;11.60;77.90;;;;;;5078742;28;19912;-84
2022/03/30 05:24:18;;;;;;;;;;;11.60;78.70;;;;;;5078377;28;20313;-83
2022/03/30 05:26:43;;;;;;;;;;;11.60;79.70;;;;;;5078492;28;20385;-79
2022/03/30 05:29:09;;;;;;;;;;;11.60;80.20;;;;;;5061004;28;19908;-80
2022/03/30 05:31:35;;;;;;;;;;;11.60;78.90;;;;;;5078926;28;19912;-74
2022/03/30 05:34:00;;;;;;;;;;;11.60;79.10;;;;;;5078377;28;19999;-74
2022/03/30 05:36:26;;;;;;;;;;;11.60;78.70;;;;;;5078758;28;19917;-74
2022/03/30 05:38:52;;;;;;;;;;;11.60;78.30;;;;;;5078740;28;19908;-74
2022/03/30 05:41:18;;;;;;;;;;;11.60;78.50;;;;;;5078411;28;20342;-73
2022/03/30 05:43:43;;;;;;;;;;;11.60;77.70;;;;;;5078342;28;19909;-73
2022/03/30 05:46:09;;;;;;;;;;;11.60;78.40;;;;;;5078623;28;19930;-72
2022/03/30 05:48:35;;;;;;;;;;;11.60;78.50;;;;;;5078434;28;19925;-74
2022/03/30 05:51:01;;;;;;;;;;;11.60;77.90;;;;;;5078379;28;19920;-75
2022/03/30 05:53:26;;;;;;;;;;;11.60;80.30;;;;;;5078443;28;19908;-79
2022/03/30 05:55:52;;;;;;;;;;;11.60;78.70;;;;;;5077772;28;19918;-80
2022/03/30 05:58:18;;;;;;;;;;;11.60;78.00;;;;;;5078144;28;19999;-81
2022/03/30 06:00:44;;;;;;;;;;;11.60;77.70;;;;;;5078456;28;19995;-81
2022/03/30 06:03:12;;;;;;;;;;;11.60;78.00;;;;;;5076986;28;19959;-80
2022/03/30 06:05:38;;;;;;;;;;;11.60;78.10;;;;;;5078380;28;19924;-79
2022/03/30 06:08:05;;;;;;;;;;;11.60;78.30;;;;;;5078395;28;20375;-80
2022/03/30 06:10:31;;;;;;;;;;;11.60;79.10;;;;;;5078171;28;19978;-81
2022/03/30 06:12:57;;;;;;;;;;;11.60;79.10;;;;;;5078032;28;19917;-80
2022/03/30 06:15:23;;;;;;;;;;;11.60;79.10;;;;;;5077881;28;19909;-80
2022/03/30 06:17:49;;;;;;;;;;;11.60;79.80;;;;;;5078312;28;19908;-80
2022/03/30 06:20:15;;;;;;;;;;;11.60;80.00;;;;;;5077603;28;20021;-80
2022/03/30 06:22:41;;;;;;;;;;;11.60;79.80;;;;;;5078295;28;20375;-80
2022/03/30 06:25:07;;;;;;;;;;;11.60;79.70;;;;;;5059692;28;19917;-80
2022/03/30 06:27:33;;;;;;;;;;;11.60;80.80;;;;;;5077880;28;19909;-80
2022/03/30 06:29:59;;;;;;;;;;;11.60;80.90;;;;;;5077850;28;19912;-79
2022/03/30 06:32:24;;;;;;;;;;;11.60;80.40;;;;;;5077934;28;19908;-80
2022/03/30 06:34:50;;;;;;;;;;;11.60;80.50;;;;;;5077718;28;20275;-80
2022/03/30 06:37:15;;;;;;;;;;;11.50;79.80;;;;;;5077745;28;19916;-79
2022/03/30 06:39:41;;;;;;;;;;;11.50;80.30;;;;;;5059425;28;19954;-80
2022/03/30 06:42:07;;;;;;;;;;;11.50;80.40;;;;;;5078171;28;19958;-80
2022/03/30 06:44:33;;;;;;;;;;;11.50;80.00;;;;;;5077472;28;19974;-80
2022/03/30 06:46:58;;;;;;;;;;;11.50;80.00;;;;;;5077365;28;20285;-80
2022/03/30 06:49:24;;;;;;;;;;;11.50;79.90;;;;;;5077684;28;20379;-80
2022/03/30 06:51:52;;;;;;;;;;;11.50;79.60;;;;;;5077831;28;19931;-82
2022/03/30 06:54:17;;;;;;;;;;;11.50;79.10;;;;;;5077447;28;19908;-80
2022/03/30 06:56:43;;;;;;;;;;;11.60;79.50;;;;;;5077688;28;20290;-80
2022/03/30 06:59:09;;;;;;;;;;;11.60;79.40;;;;;;5077339;28;19908;-80
2022/03/30 07:01:34;;;;;;;;;;;11.60;81.20;;;;;;5077756;28;20294;-80
2022/03/30 07:04:00;;;;;;;;;;;11.60;80.60;;;;;;5077547;28;20264;-80
2022/03/30 07:06:27;;;;;;;;;;;11.70;81.00;;;;;;5077863;28;19916;-80
2022/03/30 07:11:36;;;;;;;;;;;11.70;80.40;;;;;;5077652;28;19962;-81
2022/03/30 07:14:02;;;;;;;;;;;11.70;79.90;;;;;;5077149;28;19909;-80
2022/03/30 07:16:28;;;;;;;;;;;11.70;80.80;;;;;;5059505;28;19956;-80
2022/03/30 07:18:54;;;;;;;;;;;11.70;81.10;;;;;;5077368;28;19951;-80
2022/03/30 07:21:20;;;;;;;;;;;11.70;79.70;;;;;;5077683;28;19909;-80
2022/03/30 07:23:45;;;;;;;;;;;11.70;79.10;;;;;;5077378;28;19912;-80
2022/03/30 07:26:11;;;;;;;;;;;11.80;79.60;;;;;;5077272;28;19908;-80
2022/03/30 07:28:37;;;;;;;;;;;11.80;81.00;;;;;;5076658;28;19995;-80
2022/03/30 07:31:03;;;;;;;;;;;11.80;80.50;;;;;;5078073;28;20014;-80
2022/03/30 07:33:29;;;;;;;;;;;11.80;80.10;;;;;;5080893;28;19908;-80
2022/03/30 07:35:55;;;;;;;;;;;11.80;79.90;;;;;;5081076;28;19916;-80
2022/03/30 07:38:21;;;;;;;;;;;11.80;79.60;;;;;;5081024;28;19909;-79
2022/03/30 07:40:47;;;;;;;;;;;11.80;79.40;;;;;;5080667;28;19991;-79
2022/03/30 07:43:14;;;;;;;;;;;11.70;79.60;;;;;;5080588;28;19909;-79
2022/03/30 07:45:39;;;;;;;;;;;11.80;79.50;;;;;;5081285;28;19909;-79
2022/03/30 07:48:05;;;;;;;;;;;11.80;79.00;;;;;;5080704;28;19931;-79
2022/03/30 07:50:31;;;;;;;;;;;11.80;79.60;;;;;;5080843;28;19998;-77
2022/03/30 07:52:57;;;;;;;;;;;11.80;80.70;;;;;;5080639;28;19912;-78
2022/03/30 07:55:24;;;;;;;;;;;11.80;80.30;;;;;;5080847;28;19936;-78
2022/03/30 07:57:50;;;;;;;;;;;11.80;80.70;;;;;;5080636;28;19912;-79
2022/03/30 08:00:16;;;;;;;;;;;11.80;80.70;;;;;;5080670;28;19920;-79
2022/03/30 08:02:42;;;;;;;;;;;11.90;80.40;;;;;;5080594;28;19915;-79
2022/03/30 08:05:10;;;;;;;;;;;11.90;80.40;;;;;;5080600;28;19909;-78
2022/03/30 08:07:37;;;;;;;;;;;11.90;79.90;;;;;;5080439;28;19908;-79
2022/03/30 08:10:03;;;;;;;;;;;11.90;79.90;;;;;;5080639;28;19908;-79
2022/03/30 08:12:28;;;;;;;;;;;11.90;80.10;;;;;;5080276;28;19939;-79
2022/03/30 08:14:54;;;;;;;;;;;12.00;80.00;;;;;;5080300;28;19908;-79
2022/03/30 08:17:20;;;;;;;;;;;12.00;79.60;;;;;;5080214;28;19935;-79
2022/03/30 08:19:46;;;;;;;;;;;12.00;79.60;;;;;;5080561;28;19913;-79
2022/03/30 08:22:28;;;;;;;;;;;12.00;79.30;;;;;;5080244;28;19952;-78
2022/03/30 08:25:00;;;;;;;;;;;12.00;80.10;;;;;;5079963;28;19908;-79
2022/03/30 08:27:30;;;;;;;;;;;12.00;79.80;;;;;;5079830;28;19912;-78
2022/03/30 08:29:56;;;;;;;;;;;12.10;80.00;;;;;;5079674;28;20284;-79
2022/03/30 08:32:23;;;;;;;;;;;12.10;79.60;;;;;;5062106;28;19916;-78
2022/03/30 08:34:49;;;;;;;;;;;12.20;79.30;;;;;;5079993;28;20023;-79
2022/03/30 08:37:15;;;;;;;;;;;12.20;79.80;;;;;;5079835;28;19913;-79
2022/03/30 08:39:41;;;;;;;;;;;12.20;79.30;;;;;;5079734;28;20287;-79
2022/03/30 08:42:08;;;;;;;;;;;12.20;79.00;;;;;;5079814;28;20363;-79
2022/03/30 08:44:34;;;;;;;;;;;12.20;78.30;;;;;;5079642;28;19999;-79
2022/03/30 08:47:01;;;;;;;;;;;12.20;78.30;;;;;;5079916;28;19909;-79
2022/03/30 08:49:27;;;;;;;;;;;12.20;78.40;;;;;;5079674;28;19969;-78
2022/03/30 08:51:54;;;;;;;;;;;12.20;79.10;;;;;;5079850;28;20371;-79
2022/03/30 08:54:20;;;;;;;;;;;12.20;79.60;;;;;;5079522;28;20014;-78
2022/03/30 08:56:47;;;;;;;;;;;12.20;79.10;;;;;;5079687;28;19917;-79
2022/03/30 08:59:17;;;;;;;;;;;12.20;78.60;;;;;;5079277;28;19915;-79
2022/03/30 09:01:44;;;;;;;;;;;12.20;78.00;;;;;;5079471;28;19912;-79
2022/03/30 09:04:12;;;;;;;;;;;12.20;78.20;;;;;;5079358;28;20397;-79
2022/03/30 09:06:38;;;;;;;;;;;12.20;78.10;;;;;;5061537;28;19943;-78
2022/03/30 09:09:04;;;;;;;;;;;12.20;78.30;;;;;;5079207;28;20303;-78
2022/03/30 09:11:36;;;;;;;;;;;12.20;77.70;;;;;;5079491;28;19991;-79
2022/03/30 09:14:05;;;;;;;;;;;12.20;77.50;;;;;;5079146;28;19913;-79
2022/03/30 09:16:52;;;;;;;;;;;12.20;78.00;;;;;;5079232;28;19935;-78
2022/03/30 09:19:19;;;;;;;;;;;12.20;78.40;;;;;;5068154;28;19995;-78
2022/03/30 09:21:48;;;;;;;;;;;12.20;78.50;;;;;;5079301;28;19913;-78
2022/03/30 09:24:16;;;;;;;;;;;12.20;79.00;;;;;;5079010;28;19915;-78
2022/03/30 09:26:42;;;;;;;;;;;12.20;79.20;;;;;;5078652;28;20011;-79
2022/03/30 09:29:08;;;;;;;;;;;12.10;78.30;;;;;;5078983;28;19958;-78
2022/03/30 09:31:35;;;;;;;;;;;12.10;78.40;;;;;;5078932;28;19912;-78
2022/03/30 09:34:02;;;;;;;;;;;12.10;78.50;;;;;;5078699;28;19975;-78
2022/03/30 09:36:31;;;;;;;;;;;12.10;79.40;;;;;;5078760;28;20002;-78
2022/03/30 09:38:57;;;;;;;;;;;12.10;79.00;;;;;;5078671;28;19908;-78
2022/03/30 09:41:23;;;;;;;;;;;12.10;78.90;;;;;;5078538;28;19916;-78
2022/03/30 09:43:49;;;;;;;;;;;12.10;78.70;;;;;;5078523;28;19909;-79
2022/03/30 09:46:15;;;;;;;;;;;12.10;79.00;;;;;;5078571;28;19909;-78
2022/03/30 09:48:49;;;;;;;;;;;12.10;78.90;;;;;;5078518;28;20017;-78
2022/03/30 09:51:19;;;;;;;;;;;12.20;79.10;;;;;;5078470;28;20007;-78
2022/03/30 09:53:46;;;;;;;;;;;12.10;78.90;;;;;;5060154;28;19909;-78
2022/03/30 09:56:19;;;;;;;;;;;12.20;79.50;;;;;;5078171;28;19912;-78
2022/03/30 09:58:46;;;;;;;;;;;12.20;79.00;;;;;;5078166;28;20001;-78
2022/03/30 10:01:19;;;;;;;;;;;12.20;79.20;;;;;;5078439;28;19915;-78
2022/03/30 10:03:46;;;;;;;;;;;12.20;79.10;;;;;;5078507;28;19909;-78
2022/03/30 10:06:13;;;;;;;;;;;12.20;79.20;;;;;;5065308;28;19915;-78
2022/03/30 10:08:40;;;;;;;;;;;12.20;78.60;;;;;;5078274;28;19995;-78
2022/03/30 10:11:06;;;;;;;;;;;12.20;78.60;;;;;;5078306;28;19912;-78
2022/03/30 10:13:32;;;;;;;;;;;12.20;78.20;;;;;;5077824;28;20298;-78
2022/03/30 10:15:58;;;;;;;;;;;12.20;77.90;;;;;;5078365;28;20011;-78
2022/03/30 10:18:24;;;;;;;;;;;12.20;77.60;;;;;;5077986;28;19909;-78
2022/03/30 10:21:01;;;;;;;;;;;12.30;77.80;;;;;;5078300;28;20368;-78
2022/03/30 10:23:40;;;;;;;;;;;12.30;77.90;;;;;;5078010;28;19908;-78
2022/03/30 10:26:08;;;;;;;;;;;12.40;78.00;;;;;;5078039;28;20352;-78
2022/03/30 10:28:40;;;;;;;;;;;12.50;78.30;;;;;;5075450;28;19915;-78
2022/03/30 10:31:06;;;;;;;;;;;12.60;78.80;;;;;;5078010;28;19913;-78
2022/03/30 10:33:36;;;;;;;;;;;12.70;78.20;;;;;;5077669;28;20008;-78
2022/03/30 10:36:21;;;;;;;;;;;12.90;78.20;;;;;;5077853;28;19912;-78
2022/03/30 10:39:05;;;;;;;;;;;13.00;78.30;;;;;;5065855;28;19908;-78
2022/03/30 10:41:51;;;;;;;;;;;13.10;77.70;;;;;;5074872;28;19912;-78
2022/03/30 10:44:35;;;;;;;;;;;13.20;77.70;;;;;;5077470;28;20375;-78
2022/03/30 10:47:07;;;;;;;;;;;13.30;77.30;;;;;;5066945;28;19916;-78
2022/03/30 10:49:50;;;;;;;;;;;13.30;76.90;;;;;;5077714;28;20375;-78
2022/03/30 10:52:35;;;;;;;;;;;13.40;76.60;;;;;;5077632;28;19908;-78
2022/03/30 10:55:13;;;;;;;;;;;13.50;76.60;;;;;;5066257;28;19915;-78
2022/03/30 10:58:01;;;;;;;;;;;13.50;76.30;;;;;;5077310;28;19912;-78
2022/03/30 11:00:28;;;;;;;;;;;13.50;76.10;;;;;;5077874;28;20430;-78
2022/03/30 11:03:10;;;;;;;;;;;13.60;76.60;;;;;;5066647;28;19908;-79
2022/03/30 11:05:37;;;;;;;;;;;13.70;76.00;;;;;;5079368;28;19908;-78
2022/03/30 11:08:05;;;;;;;;;;;13.70;75.30;;;;;;5081991;28;19909;-80
2022/03/30 11:10:47;;;;;;;;;;;13.70;75.20;;;;;;5081507;28;19915;-78
2022/03/30 11:13:22;;;;;;;;;;;13.70;74.90;;;;;;5081492;28;19915;-78
2022/03/30 11:16:14;;;;;;;;;;;13.70;74.70;;;;;;5063402;28;19919;-78
2022/03/30 11:18:56;;;;;;;;;;;13.70;74.80;;;;;;5060482;28;19955;-78
2022/03/30 11:21:22;;;;;;;;;;;13.60;74.80;;;;;;5081690;28;19915;-78
2022/03/30 11:24:04;;;;;;;;;;;13.70;74.90;;;;;;5081288;28;19909;-78
2022/03/30 11:26:48;;;;;;;;;;;13.70;75.10;;;;;;5081355;28;19915;-79
2022/03/30 11:29:33;;;;;;;;;;;13.90;74.90;;;;;;5070301;28;19931;-78
2022/03/30 11:31:58;;;;;;;;;;;13.90;74.30;;;;;;5080987;28;20333;-78
2022/03/30 11:34:30;;;;;;;;;;;13.90;74.10;;;;;;5081300;28;19923;-79
2022/03/30 11:36:56;;;;;;;;;;;13.80;74.00;;;;;;5081058;28;19912;-78
2022/03/30 11:39:30;;;;;;;;;;;13.80;74.10;;;;;;5080785;28;19947;-78
2022/03/30 11:41:57;;;;;;;;;;;13.80;74.30;;;;;;5067946;28;19916;-79
2022/03/30 11:47:12;;;;;;;;;;;13.90;74.60;;;;;;5080939;28;19920;-79
2022/03/30 11:50:07;;;;;;;;;;;14.10;74.80;;;;;;5080927;28;19913;-79
2022/03/30 11:52:33;;;;;;;;;;;14.20;74.60;;;;;;5059085;28;19908;-79
2022/03/30 11:54:59;;;;;;;;;;;14.30;74.40;;;;;;5080592;28;20351;-78
2022/03/30 11:57:24;;;;;;;;;;;14.50;74.30;;;;;;5080631;28;19913;-78
2022/03/30 11:59:57;;;;;;;;;;;14.60;73.90;;;;;;5080611;28;19909;-79
2022/03/30 12:02:29;;;;;;;;;;;14.60;73.50;;;;;;5080534;28;19909;-78
2022/03/30 12:04:55;;;;;;;;;;;14.60;72.80;;;;;;5080797;28;19904;-79
2022/03/30 12:07:22;;;;;;;;;;;14.60;72.60;;;;;;5080453;28;20348;-78
2022/03/30 12:09:48;;;;;;;;;;;14.50;72.50;;;;;;5080811;28;20271;-78
2022/03/30 12:12:36;;;;;;;;;;;14.50;73.10;;;;;;5080380;28;19908;-79
2022/03/30 12:15:18;;;;;;;;;;;14.50;73.40;;;;;;5080316;28;20359;-79
2022/03/30 12:17:49;;;;;;;;;;;14.50;72.90;;;;;;5068351;28;19958;-79
2022/03/30 12:20:22;;;;;;;;;;;14.50;72.50;;;;;;5080409;28;21521;-80
2022/03/30 12:22:53;;;;;;;;;;;14.50;72.40;;;;;;5080416;28;19940;-79
2022/03/30 12:25:18;;;;;;;;;;;14.40;72.10;;;;;;5080076;28;19908;-79
2022/03/30 12:27:44;;;;;;;;;;;14.40;72.20;;;;;;5077649;28;19954;-80
2022/03/30 12:30:10;;;;;;;;;;;14.40;72.50;;;;;;5080152;28;19943;-79
2022/03/30 12:32:36;;;;;;;;;;;14.40;72.40;;;;;;5080064;28;19952;-79
2022/03/30 12:35:09;;;;;;;;;;;14.50;72.60;;;;;;5079988;28;19953;-80
2022/03/30 12:37:34;;;;;;;;;;;14.60;72.30;;;;;;5080118;28;20394;-78
2022/03/30 12:40:11;;;;;;;;;;;14.60;72.00;;;;;;5079690;28;19908;-79
2022/03/30 12:42:37;;;;;;;;;;;14.70;72.10;;;;;;5079887;28;19915;-79
2022/03/30 12:45:05;;;;;;;;;;;14.80;72.30;;;;;;5079595;28;20279;-79
2022/03/30 12:47:33;;;;;;;;;;;15.00;72.50;;;;;;5079757;28;19959;-78
2022/03/30 12:50:00;;;;;;;;;;;15.10;72.30;;;;;;5079709;28;20397;-78
2022/03/30 12:52:32;;;;;;;;;;;15.30;72.60;;;;;;5079757;28;20010;-79
2022/03/30 12:55:14;;;;;;;;;;;15.30;71.10;;;;;;5082625;28;19920;-79
2022/03/30 12:57:48;;;;;;;;;;;15.30;71.00;;;;;;5061192;28;20008;-79
2022/03/30 13:00:15;;;;;;;;;;;15.30;70.70;;;;;;5080192;28;20299;-79
2022/03/30 13:02:41;;;;;;;;;;;15.30;70.50;;;;;;5079516;28;19919;-78
2022/03/30 13:05:08;;;;;;;;;;;15.20;70.30;;;;;;5079657;28;19909;-78
2022/03/30 13:07:47;;;;;;;;;;;15.00;69.90;;;;;;5079527;28;19991;-78
2022/03/30 13:10:13;;;;;;;;;;;14.90;70.00;;;;;;5079611;28;19970;-78
2022/03/30 13:12:39;;;;;;;;;;;14.80;70.60;;;;;;5079031;28;19916;-78
2022/03/30 13:15:06;;;;;;;;;;;14.70;70.70;;;;;;5079296;28;20322;-78
2022/03/30 13:17:32;;;;;;;;;;;14.70;71.10;;;;;;5066416;28;19963;-78
2022/03/30 13:19:59;;;;;;;;;;;14.70;70.70;;;;;;5079339;28;20279;-80
2022/03/30 13:22:25;;;;;;;;;;;14.70;70.60;;;;;;5079315;28;20379;-79
2022/03/30 13:24:54;;;;;;;;;;;14.70;70.50;;;;;;5079117;28;19969;-79
2022/03/30 13:27:20;;;;;;;;;;;14.60;70.50;;;;;;5075857;28;20366;-79
2022/03/30 13:29:46;;;;;;;;;;;14.50;70.50;;;;;;5077788;28;20379;-79
2022/03/30 13:32:12;;;;;;;;;;;14.50;70.70;;;;;;5079127;28;19908;-79
2022/03/30 13:34:38;;;;;;;;;;;14.40;70.90;;;;;;5078892;28;19916;-79
2022/03/30 13:37:04;;;;;;;;;;;14.40;71.00;;;;;;5078739;28;20299;-78
2022/03/30 13:39:29;;;;;;;;;;;14.30;70.80;;;;;;5078476;28;19908;-78
2022/03/30 13:41:55;;;;;;;;;;;14.30;70.80;;;;;;5078817;28;19914;-78
2022/03/30 13:44:21;;;;;;;;;;;14.30;70.60;;;;;;5078291;28;19952;-79
2022/03/30 13:46:47;;;;;;;;;;;14.30;70.90;;;;;;5078818;28;19944;-79
2022/03/30 13:49:13;;;;;;;;;;;14.30;71.20;;;;;;5078608;28;19920;-79
2022/03/30 13:51:39;;;;;;;;;;;14.20;70.50;;;;;;5060641;28;20001;-78
2022/03/30 13:54:05;;;;;;;;;;;14.20;70.50;;;;;;5078284;28;19912;-78
2022/03/30 13:56:30;;;;;;;;;;;14.20;70.60;;;;;;5078774;28;20331;-79
2022/03/30 13:58:56;;;;;;;;;;;14.20;71.00;;;;;;5078202;28;20371;-78
2022/03/30 14:01:23;;;;;;;;;;;14.10;70.70;;;;;;5078583;28;19908;-79
2022/03/30 14:03:49;;;;;;;;;;;14.10;70.80;;;;;;5078566;28;19948;-78
2022/03/30 14:06:14;;;;;;;;;;;14.10;70.70;;;;;;5078650;28;19915;-78
2022/03/30 14:08:40;;;;;;;;;;;14.10;71.00;;;;;;5078201;28;19912;-78
2022/03/30 14:11:07;;;;;;;;;;;14.10;71.10;;;;;;5078308;28;19920;-79
2022/03/30 14:13:33;;;;;;;;;;;14.20;70.80;;;;;;5077783;28;20287;-78
2022/03/30 14:15:58;;;;;;;;;;;14.30;70.60;;;;;;5078265;28;19912;-78
2022/03/30 14:18:24;;;;;;;;;;;14.30;70.40;;;;;;5078092;28;19915;-78
2022/03/30 14:20:55;;;;;;;;;;;14.40;70.90;;;;;;5078275;28;19915;-79
2022/03/30 14:23:21;;;;;;;;;;;14.50;70.50;;;;;;5077983;28;19908;-78
2022/03/30 14:25:47;;;;;;;;;;;14.50;70.10;;;;;;5078300;28;20007;-78